Auburn, IA (51433)

7:08 PM CDT on September 02, 2015 (GMT -0500)
Midwest | | Change Station
CLOSE
Current Station
Personal Weather Station
Location: Lake City, IA
Elevation: 1201 ft
Nearby Weather Stations

Elev 1201 ft 42.27 °N, 94.74 °W | Updated 7 minutes ago

Clear
Clear
82.4 °F
Feels Like 89 °F
N
0.0
Wind Variable Wind from South
Gusts 0.0 mph

Today
High -- | Low -- °F
--% Chance of Precip.
Yesterday
High -- | Low -- °F
Precip. -- in
6:45 AM 7:52 PM
Waning Gibbous, 76% visible
Pressure 29.86 in
Visibility 10.0 miles
Clouds Few 11000 ft
Heat Index 89 °F
Dew Point 74 °F
Humidity 77%
Rainfall 0.00 in
Snow Depth Not available.
UV 0.0 out of 12
Pollen 9.00 out of 12
Air Quality Not available.
Flu Activity Not available.
METAR KCIN 022355Z AUTO 21008KT 10SM FEW110 27/22 A2986 RMK AO2
Pressure 29.86 in
Visibility 10.0 miles
Clouds Few 11000 ft
Heat Index 89 °F
Dew Point 74 °F
Humidity 77%
Rainfall 0.00 in
Snow Depth Not available.
UV 0.0 out of 12
Pollen 9.00 out of 12
Air Quality Not available.
Flu Activity Not available.
METAR KCIN 022355Z AUTO 21008KT 10SM FEW110 27/22 A2986 RMK AO2

10-Day Weather Forecast

×

Almanac

Astronomy

Sep. 02, 2015 Rise Set
Actual Time
Civil Twilight
Nautical Twilight
Astronomical Twilight
Moon
Length of Visible Light
Length of Day
Tomorrow will be .
, % of the Moon is Illuminated

Today's Extremes

State Highs State Lows

Community

WunderPhotos

Upload Photos

1,851,846 photos uploaded!

WunderBlogs® & News

Nearby

Air Quality

  Air Quality AQ Index Pollutant
Not available.

Snow Depth

Station Depth Elevation

Earthquake Activity

City Distance Mag. Time & Date
Minimum magnitude displayed is 2.5.

Coastal Water Temperatures

Place Temperature

Stations

Nearby Weather Stations

Station Location Temp. Windchill Dew Point Humidity Wind Precip. Elev Updated Type